Time;durP1;ratioP1;P1;durP2;ratioP2;P2;SDS_P1;SDS_P2;PMS_P1;PMS_P2;Temp;Humidity;BMP_temperature;BMP_pressure;BME280_temperature;BME280_humidity;BME280_pressure;Samples;Min_cycle;Max_cycle;Signal;HPM_P1;HPM_P2
2023/03/21 00:01:26;;;;;;;3.53;3.23;;;11.70;99.90;;;;;;10490623;28;20214;-80
2023/03/21 00:06:28;;;;;;;3.97;3.57;;;11.70;99.90;;;;;;10515257;28;20190;-80
2023/03/21 00:11:31;;;;;;;3.40;3.10;;;11.70;99.90;;;;;;10456979;28;20275;-80
2023/03/21 00:16:34;;;;;;;3.47;3.27;;;11.60;99.90;;;;;;10513287;28;20209;-79
2023/03/21 00:21:37;;;;;;;4.03;3.70;;;11.50;99.90;;;;;;10473691;28;20216;-80
2023/03/21 00:26:40;;;;;;;2.77;2.67;;;11.40;99.90;;;;;;10471080;28;20197;-79
2023/03/21 00:31:42;;;;;;;3.10;2.90;;;11.40;99.90;;;;;;10496477;28;20217;-79
2023/03/21 00:36:46;;;;;;;3.50;3.00;;;11.40;99.90;;;;;;10454445;28;20237;-80
2023/03/21 00:41:49;;;;;;;3.40;3.10;;;11.40;99.90;;;;;;10482597;28;20614;-82
2023/03/21 00:46:52;;;;;;;3.80;3.50;;;11.40;99.90;;;;;;10489351;28;20653;-81
2023/03/21 00:51:54;;;;;;;6.20;3.23;;;11.40;99.90;;;;;;10495381;28;20290;-79
2023/03/21 00:56:57;;;;;;;3.33;3.13;;;11.50;99.90;;;;;;10453120;28;20305;-77
2023/03/21 01:02:00;;;;;;;3.80;3.03;;;11.50;99.90;;;;;;10490603;28;20210;-78
2023/03/21 01:07:02;;;;;;;3.77;3.30;;;11.50;99.90;;;;;;10491006;28;20296;-77
2023/03/21 01:12:05;;;;;;;3.27;2.97;;;11.50;99.90;;;;;;10495117;28;20214;-78
2023/03/21 01:17:08;;;;;;;3.77;3.47;;;11.50;99.90;;;;;;10455979;28;20766;-78
2023/03/21 01:22:10;;;;;;;3.37;3.17;;;11.50;99.90;;;;;;10495922;28;20687;-79
2023/03/21 01:27:13;;;;;;;4.47;4.00;;;11.50;99.90;;;;;;10484975;28;20536;-79
2023/03/21 01:32:15;;;;;;;3.93;3.70;;;11.50;99.90;;;;;;10462618;28;20231;-78
2023/03/21 01:37:18;;;;;;;6.63;3.70;;;11.50;99.90;;;;;;10491648;28;20211;-78
2023/03/21 01:42:24;;;;;;;3.80;3.40;;;11.50;99.90;;;;;;10467575;28;20619;-78
2023/03/21 01:47:27;;;;;;;7.53;3.53;;;11.40;99.90;;;;;;10456880;28;20523;-78
2023/03/21 01:52:40;;;;;;;3.70;3.50;;;11.40;99.90;;;;;;10460419;28;20225;-80
2023/03/21 01:57:56;;;;;;;3.47;3.27;;;11.40;99.90;;;;;;10502121;28;20220;-81
2023/03/21 02:03:01;;;;;;;3.57;3.37;;;11.50;99.90;;;;;;10440094;28;20244;-80
2023/03/21 02:08:13;;;;;;;3.90;3.60;;;11.40;99.90;;;;;;10472214;28;20213;-81
2023/03/21 02:13:17;;;;;;;4.00;3.63;;;11.40;99.90;;;;;;10505327;28;20221;-80
2023/03/21 02:18:26;;;;;;;3.97;3.63;;;11.50;99.90;;;;;;10485451;28;20208;-80
2023/03/21 02:23:52;;;;;;;3.60;3.40;;;11.50;99.90;;;;;;10461820;28;20315;-79
2023/03/21 02:29:01;;;;;;;4.40;4.03;;;11.40;99.90;;;;;;10446242;28;20724;-79
2023/03/21 02:34:36;;;;;;;4.30;4.10;;;11.40;99.90;;;;;;10459788;28;20228;-79
2023/03/21 02:39:53;;;;;;;4.30;4.00;;;11.40;99.90;;;;;;10491100;28;20214;-79
2023/03/21 02:45:00;;;;;;;4.50;3.87;;;11.40;99.90;;;;;;10458470;28;20218;-77
2023/03/21 02:50:10;;;;;;;4.87;4.40;;;11.40;99.90;;;;;;10462623;28;20197;-78
2023/03/21 02:55:17;;;;;;;3.83;3.57;;;11.30;99.90;;;;;;10484312;28;20247;-79
2023/03/21 03:00:29;;;;;;;9.77;7.37;;;11.30;99.90;;;;;;10484390;28;20208;-80
2023/03/21 03:05:35;;;;;;;4.43;3.97;;;11.30;99.90;;;;;;10504586;28;20218;-79
2023/03/21 03:10:51;;;;;;;4.63;4.23;;;11.30;99.90;;;;;;10487117;28;20220;-79
2023/03/21 03:16:04;;;;;;;4.33;3.93;;;11.30;99.90;;;;;;10498681;28;20271;-79
2023/03/21 03:21:14;;;;;;;4.70;4.40;;;11.30;99.90;;;;;;10506826;28;20218;-80
2023/03/21 03:26:21;;;;;;;4.20;3.90;;;11.30;99.90;;;;;;10484752;28;20239;-79
2023/03/21 03:31:28;;;;;;;4.50;4.20;;;11.20;99.90;;;;;;10492940;28;20263;-79
2023/03/21 03:36:38;;;;;;;4.00;3.80;;;11.20;99.90;;;;;;10444977;28;20221;-77
2023/03/21 03:41:49;;;;;;;4.00;3.60;;;11.20;99.90;;;;;;10455760;28;20218;-77
2023/03/21 03:46:58;;;;;;;4.70;4.40;;;11.20;99.90;;;;;;10470393;28;20259;-77
2023/03/21 03:52:04;;;;;;;5.00;4.60;;;11.10;99.90;;;;;;10478752;28;20755;-78
2023/03/21 03:57:17;;;;;;;4.60;4.20;;;11.10;99.90;;;;;;10502643;28;20248;-80
2023/03/21 04:02:20;;;;;;;3.90;3.60;;;11.10;99.90;;;;;;10484795;28;20210;-79
2023/03/21 04:07:25;;;;;;;4.13;3.83;;;11.10;99.90;;;;;;10485963;28;20207;-80
2023/03/21 04:12:31;;;;;;;5.20;3.67;;;11.10;99.90;;;;;;10490707;28;20222;-78
2023/03/21 04:17:53;;;;;;;4.10;3.90;;;11.10;99.90;;;;;;10489687;28;20264;-80
2023/03/21 04:22:56;;;;;;;4.73;4.40;;;11.10;99.90;;;;;;10492349;28;20632;-80
2023/03/21 04:27:59;;;;;;;4.77;4.37;;;11.10;99.90;;;;;;10485571;28;20232;-78
2023/03/21 04:33:11;;;;;;;4.47;3.90;;;11.10;99.90;;;;;;10488691;28;20217;-79
2023/03/21 04:38:16;;;;;;;4.57;4.27;;;11.10;99.90;;;;;;10470432;28;20224;-79
2023/03/21 04:43:20;;;;;;;8.00;7.30;;;11.00;99.90;;;;;;10503653;28;20633;-79
2023/03/21 04:48:23;;;;;;;5.10;4.60;;;10.90;99.90;;;;;;10488903;28;20213;-77
2023/03/21 04:53:27;;;;;;;5.67;5.17;;;10.90;99.90;;;;;;10461680;28;20225;-81
2023/03/21 04:58:30;;;;;;;4.63;4.00;;;10.80;99.90;;;;;;10488513;28;20244;-80
2023/03/21 05:03:38;;;;;;;4.80;4.40;;;10.70;99.90;;;;;;10477283;28;20218;-82
2023/03/21 05:08:40;;;;;;;3.90;3.67;;;10.60;99.90;;;;;;10487606;28;20259;-81
2023/03/21 05:13:45;;;;;;;4.47;4.27;;;10.50;99.90;;;;;;10504648;28;20244;-82
2023/03/21 05:18:49;;;;;;;4.93;4.27;;;10.30;99.90;;;;;;10478074;28;20226;-82
2023/03/21 05:23:53;;;;;;;3.90;3.70;;;10.30;99.90;;;;;;10478638;28;20226;-79
2023/03/21 05:28:57;;;;;;;3.70;3.50;;;10.30;99.90;;;;;;10481260;28;20283;-80
2023/03/21 05:34:01;;;;;;;6.80;4.50;;;10.30;99.90;;;;;;10481960;28;20220;-81
2023/03/21 05:39:03;;;;;;;5.20;4.80;;;10.30;99.90;;;;;;10476542;28;20217;-81
2023/03/21 05:44:11;;;;;;;7.63;6.90;;;10.30;99.90;;;;;;10447143;28;20228;-81
2023/03/21 05:49:15;;;;;;;6.43;5.43;;;10.20;99.90;;;;;;10480102;28;20712;-81
2023/03/21 05:54:18;;;;;;;7.80;5.53;;;10.30;99.90;;;;;;10489154;28;20228;-78
2023/03/21 05:59:24;;;;;;;5.13;4.50;;;10.30;99.90;;;;;;10479890;28;20575;-81
2023/03/21 06:04:29;;;;;;;5.57;4.90;;;10.30;99.90;;;;;;10474146;28;20221;-81
2023/03/21 06:09:32;;;;;;;8.40;5.30;;;10.40;99.90;;;;;;10484313;28;20652;-82
2023/03/21 06:14:38;;;;;;;5.50;5.03;;;10.50;99.90;;;;;;10455510;28;20213;-81
2023/03/21 06:19:54;;;;;;;5.50;5.07;;;10.60;99.90;;;;;;10466723;28;20220;-82
2023/03/21 06:25:02;;;;;;;6.77;6.07;;;10.80;99.90;;;;;;10483514;28;20210;-79
2023/03/21 06:30:07;;;;;;;6.20;5.70;;;10.90;99.90;;;;;;10496276;28;20197;-82
2023/03/21 06:35:17;;;;;;;6.47;5.97;;;11.00;99.90;;;;;;10497963;28;20209;-81
2023/03/21 06:40:19;;;;;;;8.50;7.00;;;11.10;99.90;;;;;;10480263;28;20624;-81
2023/03/21 06:45:24;;;;;;;7.43;6.47;;;11.10;99.90;;;;;;10476702;28;20240;-80
2023/03/21 06:50:26;;;;;;;7.60;6.77;;;11.10;99.90;;;;;;10472285;28;20201;-81
2023/03/21 06:55:29;;;;;;;6.33;5.83;;;11.10;99.90;;;;;;10485639;28;20217;-81
2023/03/21 07:00:35;;;;;;;5.47;5.03;;;11.10;99.90;;;;;;10485791;28;20716;-81
2023/03/21 07:05:37;;;;;;;7.40;6.70;;;11.20;99.90;;;;;;10485131;28;20209;-81
2023/03/21 07:10:42;;;;;;;6.37;5.97;;;11.20;99.90;;;;;;10481828;28;20201;-82
2023/03/21 07:15:47;;;;;;;7.73;6.20;;;11.20;99.90;;;;;;10467401;28;20206;-82
2023/03/21 07:20:50;;;;;;;10.40;9.47;;;11.30;99.90;;;;;;10470920;28;20193;-81
2023/03/21 07:25:53;;;;;;;9.80;7.20;;;11.30;99.90;;;;;;10487772;28;20197;-81
2023/03/21 07:30:58;;;;;;;8.17;6.57;;;11.40;99.90;;;;;;10472566;28;20225;-80
2023/03/21 07:36:02;;;;;;;7.47;6.60;;;11.50;99.90;;;;;;10488066;28;20218;-82
2023/03/21 07:41:05;;;;;;;8.33;6.63;;;11.60;99.90;;;;;;10486239;28;20225;-81
2023/03/21 07:46:10;;;;;;;7.07;6.47;;;11.60;99.90;;;;;;10473605;28;20228;-82
2023/03/21 07:51:12;;;;;;;6.10;5.60;;;11.70;99.90;;;;;;10496840;28;20225;-82
2023/03/21 07:56:15;;;;;;;6.03;5.63;;;11.80;99.90;;;;;;10491990;28;20275;-82
2023/03/21 08:01:18;;;;;;;6.93;6.00;;;11.80;99.90;;;;;;10501485;28;20696;-82
2023/03/21 08:06:21;;;;;;;4.90;4.50;;;11.90;99.90;;;;;;10478401;28;20220;-81
2023/03/21 08:11:23;;;;;;;5.50;5.00;;;11.90;99.90;;;;;;10446879;28;20639;-81
2023/03/21 08:16:27;;;;;;;4.80;4.40;;;12.00;99.90;;;;;;10480490;28;20224;-81
2023/03/21 08:21:29;;;;;;;4.53;4.23;;;12.10;99.90;;;;;;10487011;28;20222;-80
2023/03/21 08:26:31;;;;;;;4.43;4.10;;;12.20;99.90;;;;;;10478369;28;20232;-78
2023/03/21 08:31:34;;;;;;;4.37;4.07;;;12.30;99.90;;;;;;10485492;28;20279;-80
2023/03/21 08:36:37;;;;;;;4.40;4.10;;;12.40;99.90;;;;;;10487968;28;20213;-80
2023/03/21 08:41:39;;;;;;;4.30;3.90;;;12.50;99.90;;;;;;10478196;28;20217;-82
2023/03/21 08:46:42;;;;;;;3.77;3.57;;;12.60;99.90;;;;;;10471018;28;20186;-82
2023/03/21 08:51:45;;;;;;;3.60;3.33;;;12.70;99.90;;;;;;10461405;28;20229;-83
2023/03/21 08:56:47;;;;;;;3.80;3.60;;;12.80;99.90;;;;;;10490295;28;20240;-82
2023/03/21 09:01:51;;;;;;;4.83;3.23;;;12.90;99.90;;;;;;10493914;28;20578;-80
2023/03/21 09:06:55;;;;;;;3.20;3.00;;;13.10;99.90;;;;;;10479671;28;20609;-79
2023/03/21 09:11:57;;;;;;;3.43;3.13;;;13.20;99.30;;;;;;10486813;28;20219;-78
2023/03/21 09:17:00;;;;;;;3.10;2.90;;;13.30;98.80;;;;;;10469144;28;20220;-79
2023/03/21 09:22:03;;;;;;;2.30;2.20;;;13.50;98.70;;;;;;10471613;28;20229;-79
2023/03/21 09:27:06;;;;;;;3.33;2.60;;;13.60;97.60;;;;;;10487327;28;20194;-80
2023/03/21 09:32:11;;;;;;;2.93;2.17;;;13.80;96.80;;;;;;10480583;28;20217;-78
2023/03/21 09:37:13;;;;;;;2.40;2.30;;;14.00;96.40;;;;;;10493212;28;20214;-81
2023/03/21 09:42:26;;;;;;;2.60;2.40;;;14.00;95.20;;;;;;10500542;28;20224;-81
2023/03/21 09:47:38;;;;;;;2.40;2.30;;;14.20;96.40;;;;;;10475491;28;20582;-82
2023/03/21 09:52:46;;;;;;;2.83;2.40;;;14.40;95.90;;;;;;10478972;28;20228;-80
2023/03/21 09:57:56;;;;;;;2.50;2.40;;;14.60;95.00;;;;;;10512074;28;20243;-81
2023/03/21 10:03:05;;;;;;;2.40;2.20;;;14.90;95.10;;;;;;10504469;28;20245;-81
2023/03/21 10:08:14;;;;;;;1.83;1.73;;;15.20;93.00;;;;;;10483725;28;20209;-79
2023/03/21 10:13:20;;;;;;;2.87;2.40;;;15.50;94.10;;;;;;10489114;28;20228;-79
2023/03/21 10:18:26;;;;;;;3.10;2.90;;;15.80;92.50;;;;;;10453977;28;20359;-78
2023/03/21 10:23:29;;;;;;;2.60;2.50;;;16.10;91.50;;;;;;10480781;28;20610;-78
2023/03/21 10:28:35;;;;;;;2.80;2.60;;;16.20;92.70;;;;;;10489667;28;20293;-80
2023/03/21 10:33:42;;;;;;;4.40;4.00;;;16.20;92.80;;;;;;10464140;28;20328;-80
2023/03/21 10:38:47;;;;;;;4.93;4.40;;;16.10;93.50;;;;;;10495120;28;20217;-80
2023/03/21 10:44:06;;;;;;;4.13;3.83;;;16.00;93.10;;;;;;10490541;28;20225;-79
2023/03/21 10:49:09;;;;;;;2.17;2.07;;;16.00;93.20;;;;;;10468837;28;20189;-80
2023/03/21 10:54:15;;;;;;;2.53;2.37;;;15.90;91.90;;;;;;10480052;28;20282;-77
2023/03/21 10:59:21;;;;;;;2.60;2.40;;;15.90;93.20;;;;;;10485438;28;20667;-77
2023/03/21 11:04:27;;;;;;;2.33;2.23;;;15.90;90.90;;;;;;10478505;28;20217;-78
2023/03/21 11:09:44;;;;;;;2.43;2.23;;;15.90;92.00;;;;;;10479901;28;20198;-78
2023/03/21 11:14:48;;;;;;;1.83;1.73;;;16.00;91.10;;;;;;10479297;28;20217;-78
2023/03/21 11:19:54;;;;;;;2.60;2.50;;;16.20;89.60;;;;;;10495001;28;20549;-78
2023/03/21 11:24:59;;;;;;;1.80;1.70;;;16.30;90.00;;;;;;10479649;28;20240;-79
2023/03/21 11:30:04;;;;;;;2.63;2.40;;;16.40;90.20;;;;;;10480537;28;20250;-78
2023/03/21 11:35:15;;;;;;;2.73;2.63;;;16.50;87.60;;;;;;10479188;28;20217;-79
2023/03/21 11:40:23;;;;;;;2.03;1.93;;;16.60;91.30;;;;;;10480907;28;20758;-80
2023/03/21 11:45:26;;;;;;;2.20;2.10;;;16.70;91.00;;;;;;10469767;28;20747;-80
2023/03/21 11:50:34;;;;;;;2.60;2.10;;;16.80;89.60;;;;;;10481402;28;20204;-79
2023/03/21 11:55:52;;;;;;;2.10;2.00;;;16.90;86.00;;;;;;10494618;28;20307;-80
2023/03/21 12:01:03;;;;;;;1.70;1.60;;;16.90;90.40;;;;;;10482416;28;20193;-79
2023/03/21 12:06:17;;;;;;;2.57;2.37;;;16.90;87.00;;;;;;10498287;28;20252;-81
2023/03/21 12:11:27;;;;;;;1.53;1.47;;;16.90;81.90;;;;;;10473812;28;20206;-78
2023/03/21 12:16:42;;;;;;;1.80;1.50;;;16.90;81.20;;;;;;10484878;28;20213;-79
2023/03/21 12:21:54;;;;;;;2.03;1.93;;;16.90;87.10;;;;;;10470328;28;20693;-82
2023/03/21 12:27:05;;;;;;;1.90;1.80;;;16.90;84.70;;;;;;10464641;28;20247;-79
2023/03/21 12:32:24;;;;;;;2.20;2.10;;;16.90;87.20;;;;;;10487343;28;20217;-81
2023/03/21 12:37:33;;;;;;;1.53;1.50;;;16.90;89.90;;;;;;10448172;28;20665;-79
2023/03/21 12:42:51;;;;;;;1.30;1.20;;;16.90;91.20;;;;;;10487722;28;20209;-79
2023/03/21 12:48:00;;;;;;;1.90;1.70;;;16.90;89.10;;;;;;10472409;28;20193;-79
2023/03/21 12:53:12;;;;;;;2.10;1.80;;;16.90;91.10;;;;;;10479741;28;20274;-80
2023/03/21 12:58:17;;;;;;;1.97;1.87;;;16.90;88.00;;;;;;10460434;28;20217;-80
2023/03/21 13:03:22;;;;;;;3.30;3.10;;;16.90;89.00;;;;;;10490746;28;20227;-81
2023/03/21 13:08:33;;;;;;;3.57;3.27;;;17.00;90.90;;;;;;10494457;28;20201;-78
2023/03/21 13:13:39;;;;;;;4.17;3.87;;;17.00;87.80;;;;;;10458786;28;20213;-77
2023/03/21 13:18:57;;;;;;;5.27;4.17;;;17.00;90.50;;;;;;10453623;28;20645;-77
2023/03/21 13:24:03;;;;;;;3.37;3.13;;;17.10;86.20;;;;;;10489616;28;20217;-81
2023/03/21 13:29:13;;;;;;;3.20;2.90;;;17.10;85.50;;;;;;10493506;28;20185;-82
2023/03/21 13:34:16;;;;;;;3.43;3.13;;;17.10;89.70;;;;;;10474941;28;20217;-79
2023/03/21 13:39:24;;;;;;;2.90;2.70;;;17.10;92.50;;;;;;10440670;28;20279;-79
2023/03/21 13:44:35;;;;;;;5.10;3.00;;;17.00;92.10;;;;;;10493125;28;20213;-77
2023/03/21 13:49:38;;;;;;;2.77;2.60;;;17.00;91.30;;;;;;10473605;28;20216;-79
2023/03/21 13:54:53;;;;;;;3.07;2.87;;;17.00;85.10;;;;;;10454351;28;20796;-77
2023/03/21 14:00:22;;;;;;;2.60;2.40;;;17.00;85.40;;;;;;10436226;28;20594;-79
2023/03/21 14:05:26;;;;;;;4.40;3.10;;;17.00;85.90;;;;;;10455883;28;20262;-77
2023/03/21 14:10:35;;;;;;;3.70;3.13;;;17.00;89.50;;;;;;10479043;28;20244;-77
2023/03/21 14:15:40;;;;;;;3.23;2.93;;;16.90;89.90;;;;;;10492623;28;20210;-77
2023/03/21 14:20:43;;;;;;;3.37;3.07;;;16.90;91.50;;;;;;10439860;28;20197;-78
2023/03/21 14:25:48;;;;;;;3.80;3.50;;;16.90;88.80;;;;;;10475497;28;20562;-77
2023/03/21 14:30:53;;;;;;;4.97;3.80;;;16.80;90.00;;;;;;10470674;28;20253;-77
2023/03/21 14:35:58;;;;;;;3.80;3.03;;;16.80;90.80;;;;;;10439328;28;20232;-80
2023/03/21 14:41:02;;;;;;;4.50;3.10;;;16.80;92.00;;;;;;10492927;28;20213;-79
2023/03/21 14:46:05;;;;;;;3.20;3.00;;;16.70;92.10;;;;;;10455877;28;20201;-78
2023/03/21 14:51:11;;;;;;;3.37;2.87;;;16.70;90.40;;;;;;10498599;28;20218;-79
2023/03/21 14:56:21;;;;;;;3.60;3.30;;;16.70;90.30;;;;;;10502224;28;20300;-79
2023/03/21 15:01:28;;;;;;;4.67;3.50;;;16.70;91.20;;;;;;10466590;28;20241;-78
2023/03/21 15:06:31;;;;;;;4.43;4.03;;;16.60;92.70;;;;;;10480831;28;20276;-81
2023/03/21 15:11:37;;;;;;;3.60;3.40;;;16.50;92.40;;;;;;10461657;28;21011;-79
2023/03/21 15:16:39;;;;;;;4.37;3.63;;;16.50;91.00;;;;;;10464332;28;20205;-80
2023/03/21 15:21:45;;;;;;;5.73;3.33;;;16.50;90.70;;;;;;10482770;28;20689;-77
2023/03/21 15:26:49;;;;;;;6.47;3.70;;;16.50;89.10;;;;;;10463371;28;20198;-81
2023/03/21 15:31:51;;;;;;;4.03;3.40;;;16.50;90.10;;;;;;10480314;28;20243;-78
2023/03/21 15:36:57;;;;;;;4.20;3.33;;;16.60;89.70;;;;;;10498045;28;20205;-79
2023/03/21 15:42:04;;;;;;;4.33;3.20;;;16.60;91.90;;;;;;10462325;28;20689;-79
2023/03/21 15:47:06;;;;;;;2.63;2.53;;;16.60;90.90;;;;;;10498983;28;20554;-80
2023/03/21 15:52:14;;;;;;;3.27;3.00;;;16.50;91.50;;;;;;10463233;28;20682;-80
2023/03/21 15:57:22;;;;;;;3.67;3.37;;;16.50;90.90;;;;;;10496942;28;20206;-80
2023/03/21 16:02:30;;;;;;;4.80;3.80;;;16.30;91.60;;;;;;10465831;28;20241;-80
2023/03/21 16:07:34;;;;;;;5.07;3.37;;;16.10;92.60;;;;;;10485051;28;20272;-82
2023/03/21 16:12:37;;;;;;;4.30;4.00;;;16.00;93.60;;;;;;10485268;28;20214;-80
2023/03/21 16:17:50;;;;;;;5.93;4.17;;;15.80;93.40;;;;;;10467119;28;20236;-81
2023/03/21 16:22:52;;;;;;;7.50;4.37;;;15.70;93.50;;;;;;10502309;28;20271;-81
2023/03/21 16:27:56;;;;;;;4.67;4.23;;;15.60;93.50;;;;;;10501280;28;20281;-80
2023/03/21 16:32:58;;;;;;;4.63;4.23;;;15.60;94.80;;;;;;10484418;28;20218;-82
2023/03/21 16:38:02;;;;;;;4.83;4.53;;;15.50;96.30;;;;;;10465998;28;20246;-80
2023/03/21 16:43:07;;;;;;;3.97;3.67;;;15.40;94.80;;;;;;10505991;28;20256;-81
2023/03/21 16:48:15;;;;;;;5.10;4.60;;;15.40;94.60;;;;;;10488211;28;20214;-81
2023/03/21 16:53:17;;;;;;;5.13;4.63;;;15.30;95.30;;;;;;10461743;28;20715;-83
2023/03/21 16:58:20;;;;;;;5.30;4.17;;;15.20;96.50;;;;;;10500572;28;20259;-81
2023/03/21 17:03:25;;;;;;;6.20;4.13;;;15.10;96.20;;;;;;10485445;28;20292;-78
2023/03/21 17:08:29;;;;;;;3.80;3.60;;;15.10;97.60;;;;;;10490950;28;20196;-79
2023/03/21 17:13:32;;;;;;;4.23;3.83;;;15.00;97.00;;;;;;10460442;28;20217;-78
2023/03/21 17:18:35;;;;;;;5.07;3.67;;;15.00;97.00;;;;;;10479055;28;20739;-79
2023/03/21 17:23:37;;;;;;;4.63;4.23;;;14.90;96.20;;;;;;10463646;28;20217;-78
2023/03/21 17:28:41;;;;;;;4.70;3.90;;;14.90;98.30;;;;;;10459978;28;20673;-78
2023/03/21 17:33:44;;;;;;;4.13;3.73;;;14.80;99.00;;;;;;10453125;28;20244;-79
2023/03/21 17:38:46;;;;;;;4.27;3.97;;;14.70;99.50;;;;;;10488650;28;20302;-80
2023/03/21 17:43:50;;;;;;;4.73;3.77;;;14.70;99.90;;;;;;10499402;28;20213;-80
2023/03/21 17:48:53;;;;;;;5.23;4.73;;;14.60;99.90;;;;;;10445295;28;20194;-81
2023/03/21 17:53:55;;;;;;;4.53;4.13;;;14.60;96.80;;;;;;10461343;28;20244;-79
2023/03/21 17:59:00;;;;;;;4.83;4.20;;;14.50;97.00;;;;;;10502782;28;20301;-79
2023/03/21 18:04:03;;;;;;;4.60;4.20;;;14.50;98.00;;;;;;10461406;28;20279;-81
2023/03/21 18:09:09;;;;;;;5.00;3.20;;;14.50;97.40;;;;;;10485039;28;20284;-81
2023/03/21 18:14:13;;;;;;;6.53;4.70;;;14.50;97.10;;;;;;10500763;28;20693;-79
2023/03/21 18:19:15;;;;;;;5.10;4.37;;;14.50;97.60;;;;;;10457939;28;20256;-81
2023/03/21 18:24:17;;;;;;;7.70;5.50;;;14.50;97.10;;;;;;10465137;28;20209;-80
2023/03/21 18:29:20;;;;;;;4.97;4.03;;;14.50;97.10;;;;;;10503006;28;20272;-79
2023/03/21 18:34:22;;;;;;;4.10;3.70;;;14.40;97.20;;;;;;10471046;28;20565;-79
2023/03/21 18:39:24;;;;;;;3.67;3.37;;;14.40;97.30;;;;;;10505342;28;20273;-80
2023/03/21 18:44:29;;;;;;;7.80;4.30;;;14.40;97.10;;;;;;10463435;28;20678;-80
2023/03/21 18:49:31;;;;;;;5.90;5.30;;;14.40;97.30;;;;;;10456995;28;20198;-81
2023/03/21 18:54:34;;;;;;;5.07;4.50;;;14.30;97.10;;;;;;10503801;28;20225;-81
2023/03/21 18:59:37;;;;;;;4.77;4.03;;;14.30;97.90;;;;;;10467873;28;20221;-81
2023/03/21 19:04:39;;;;;;;4.33;4.03;;;14.20;98.00;;;;;;10504942;28;20274;-81
2023/03/21 19:09:42;;;;;;;6.50;4.23;;;14.20;98.00;;;;;;10506094;28;20220;-81
2023/03/21 19:14:45;;;;;;;4.47;4.07;;;14.20;98.80;;;;;;10483343;28;20213;-81
2023/03/21 19:19:47;;;;;;;8.83;4.60;;;14.20;97.90;;;;;;10464518;28;20241;-82
2023/03/21 19:24:49;;;;;;;14.87;11.03;;;14.20;97.70;;;;;;10501180;28;20213;-81
2023/03/21 19:29:53;;;;;;;6.23;4.17;;;14.10;97.50;;;;;;10498283;28;20196;-81
2023/03/21 19:34:55;;;;;;;4.20;3.80;;;14.10;97.60;;;;;;10501558;28;20221;-79
2023/03/21 19:39:57;;;;;;;4.70;4.30;;;14.10;98.70;;;;;;10468328;28;20244;-81
2023/03/21 19:45:01;;;;;;;5.33;4.73;;;14.10;99.90;;;;;;10503040;28;20217;-82
2023/03/21 19:50:03;;;;;;;4.53;4.10;;;14.00;98.20;;;;;;10480602;28;20203;-80
2023/03/21 19:55:06;;;;;;;8.93;6.53;;;14.10;98.00;;;;;;10470246;28;20236;-82
2023/03/21 20:00:11;;;;;;;26.40;21.87;;;14.10;98.30;;;;;;10502253;28;20241;-80
2023/03/21 20:05:15;;;;;;;7.93;7.13;;;14.00;98.40;;;;;;10469795;28;20218;-81
2023/03/21 20:10:17;;;;;;;7.87;7.17;;;14.00;98.50;;;;;;10489700;28;20998;-80
2023/03/21 20:15:21;;;;;;;8.23;7.10;;;13.90;98.30;;;;;;10494978;28;20763;-81
2023/03/21 20:20:24;;;;;;;8.67;6.90;;;13.80;98.90;;;;;;10466315;28;20221;-79
2023/03/21 20:25:26;;;;;;;7.00;6.40;;;13.80;98.70;;;;;;10495674;28;20213;-82
2023/03/21 20:30:30;;;;;;;10.10;8.07;;;13.80;98.40;;;;;;10487651;28;20186;-80
2023/03/21 20:35:32;;;;;;;12.17;8.93;;;13.80;97.50;;;;;;10493210;28;20236;-80
2023/03/21 20:40:34;;;;;;;7.80;7.00;;;13.70;98.00;;;;;;10468080;28;20268;-80
2023/03/21 20:45:37;;;;;;;7.77;6.70;;;13.70;99.20;;;;;;10492318;28;20223;-80
2023/03/21 20:50:39;;;;;;;7.50;6.67;;;13.60;99.40;;;;;;10497272;28;20288;-80
2023/03/21 20:55:41;;;;;;;8.90;6.17;;;13.60;98.50;;;;;;10473564;28;20193;-82
2023/03/21 21:00:47;;;;;;;7.43;6.77;;;13.70;98.40;;;;;;10497680;28;20228;-79
2023/03/21 21:05:49;;;;;;;11.90;7.40;;;13.70;98.50;;;;;;10471882;28;20198;-82
2023/03/21 21:10:51;;;;;;;11.23;6.67;;;13.70;98.30;;;;;;10497020;28;20186;-82
2023/03/21 21:15:55;;;;;;;8.13;7.33;;;13.70;99.00;;;;;;10481639;28;20202;-81
2023/03/21 21:21:00;;;;;;;7.07;6.37;;;13.60;99.10;;;;;;10492965;28;20239;-79
2023/03/21 21:26:03;;;;;;;7.00;6.30;;;13.60;98.50;;;;;;10474921;28;20231;-79
2023/03/21 21:31:11;;;;;;;7.60;6.03;;;13.60;98.80;;;;;;10469251;28;20608;-80
2023/03/21 21:36:14;;;;;;;6.83;6.23;;;13.60;99.00;;;;;;10476607;28;20265;-80
2023/03/21 21:41:19;;;;;;;6.10;5.60;;;13.60;98.70;;;;;;10491506;28;20290;-81
2023/03/21 21:46:23;;;;;;;6.00;5.50;;;13.50;98.40;;;;;;10470966;28;20243;-80
2023/03/21 21:51:25;;;;;;;5.80;5.30;;;13.50;98.90;;;;;;10460580;28;20229;-81
2023/03/21 21:56:30;;;;;;;7.80;5.27;;;13.50;98.90;;;;;;10482903;28;20194;-82
2023/03/21 22:01:37;;;;;;;5.30;4.80;;;13.50;99.00;;;;;;10504011;28;20226;-81
2023/03/21 22:06:40;;;;;;;5.23;4.83;;;13.50;98.60;;;;;;10484672;28;20204;-81
2023/03/21 22:11:42;;;;;;;6.00;5.00;;;13.50;99.10;;;;;;10504276;28;20209;-81
2023/03/21 22:16:45;;;;;;;5.60;5.17;;;13.40;99.30;;;;;;10504570;28;20200;-81
2023/03/21 22:21:47;;;;;;;5.27;4.77;;;13.40;99.10;;;;;;10488041;28;20217;-81
2023/03/21 22:26:56;;;;;;;5.03;4.60;;;13.30;99.30;;;;;;10501808;28;20280;-80
2023/03/21 22:31:59;;;;;;;4.87;4.47;;;13.30;99.30;;;;;;10500314;28;20324;-80
2023/03/21 22:37:02;;;;;;;4.67;4.23;;;13.30;99.30;;;;;;10482486;28;20609;-82
2023/03/21 22:42:04;;;;;;;5.03;4.63;;;13.30;99.70;;;;;;10481566;28;20582;-79
2023/03/21 22:47:10;;;;;;;5.80;3.77;;;13.20;99.50;;;;;;10500939;28;20218;-79
2023/03/21 22:52:13;;;;;;;5.03;4.40;;;13.20;99.10;;;;;;10485901;28;20281;-81
2023/03/21 22:57:16;;;;;;;5.03;4.57;;;13.10;99.40;;;;;;10502302;28;20204;-79
2023/03/21 23:02:19;;;;;;;4.40;4.03;;;13.10;99.00;;;;;;10509513;28;20244;-81
2023/03/21 23:07:22;;;;;;;4.87;4.37;;;13.00;99.80;;;;;;10482793;28;20194;-79
2023/03/21 23:12:26;;;;;;;4.40;4.10;;;13.00;99.50;;;;;;10493248;28;20221;-79
2023/03/21 23:17:30;;;;;;;4.80;4.40;;;12.90;99.70;;;;;;10477481;28;20232;-79
2023/03/21 23:22:32;;;;;;;6.87;3.80;;;12.80;99.70;;;;;;10489114;28;20213;-80
2023/03/21 23:27:35;;;;;;;4.40;4.10;;;12.70;99.90;;;;;;10479153;28;20198;-79
2023/03/21 23:32:38;;;;;;;6.47;4.00;;;12.70;99.90;;;;;;10469773;28;20218;-79
2023/03/21 23:37:41;;;;;;;4.50;4.17;;;12.60;99.60;;;;;;10491685;28;20200;-79
2023/03/21 23:42:43;;;;;;;4.03;3.70;;;12.50;99.90;;;;;;10495539;28;20217;-81
2023/03/21 23:47:46;;;;;;;3.73;3.53;;;12.40;99.90;;;;;;10507068;28;20308;-80
2023/03/21 23:52:48;;;;;;;4.23;3.93;;;12.30;99.70;;;;;;10481895;28;20225;-79
2023/03/21 23:57:57;;;;;;;3.47;3.20;;;12.20;99.90;;;;;;10489194;28;20197;-82
